Time;durP1;ratioP1;P1;durP2;ratioP2;P2;SDS_P1;SDS_P2;PMS_P1;PMS_P2;Temp;Humidity;BMP_temperature;BMP_pressure;BME280_temperature;BME280_humidity;BME280_pressure;Samples;Min_cycle;Max_cycle;Signal;HPM_P1;HPM_P2
2022/02/25 00:01:38;;;;;;;5.97;2.27;;;;;;;1.31;97.04;101650.25;5137387;27;20019;-36
2022/02/25 00:04:03;;;;;;;7.90;2.07;;;;;;;1.38;96.77;101667.34;5138527;27;20031;-36
2022/02/25 00:06:29;;;;;;;6.13;2.13;;;;;;;1.35;96.75;101672.13;5137744;27;20077;-36
2022/02/25 00:08:54;;;;;;;4.77;2.20;;;;;;;1.39;96.61;101674.34;5137824;27;20303;-36
2022/02/25 00:11:19;;;;;;;6.50;2.83;;;;;;;1.33;96.50;101674.13;5137809;27;20023;-36
2022/02/25 00:13:45;;;;;;;4.10;2.30;;;;;;;1.37;96.73;101683.50;5137462;27;20030;-36
2022/02/25 00:16:10;;;;;;;7.80;3.30;;;;;;;1.35;96.99;101690.78;5137455;27;20383;-36
2022/02/25 00:18:35;;;;;;;7.30;2.33;;;;;;;1.29;96.82;101690.41;5137052;27;20026;-36
2022/02/25 00:21:00;;;;;;;3.73;1.93;;;;;;;1.19;96.93;101678.97;5137873;27;20015;-36
2022/02/25 00:23:26;;;;;;;8.80;2.87;;;;;;;1.28;96.49;101695.88;5137574;27;20076;-36
2022/02/25 00:25:51;;;;;;;6.47;2.30;;;;;;;1.33;97.08;101700.75;5137228;27;20031;-36
2022/02/25 00:28:16;;;;;;;6.33;2.80;;;;;;;1.34;96.44;101700.59;5137157;27;20031;-36
2022/02/25 00:30:42;;;;;;;4.87;2.20;;;;;;;1.27;97.22;101689.72;5137870;27;20462;-36
2022/02/25 00:33:07;;;;;;;5.97;2.50;;;;;;;1.37;96.67;101710.13;5136803;27;20035;-35
2022/02/25 00:35:33;;;;;;;4.20;2.00;;;;;;;1.39;97.10;101718.81;5137742;27;20027;-35
2022/02/25 00:37:58;;;;;;;6.43;2.63;;;;;;;1.38;96.80;101714.47;5135682;27;20463;-35
2022/02/25 00:40:23;;;;;;;4.87;2.23;;;;;;;1.39;96.83;101714.31;5137740;27;20049;-35
2022/02/25 00:42:49;;;;;;;5.37;2.20;;;;;;;1.45;96.35;101719.03;5136686;27;20455;-35
2022/02/25 00:45:14;;;;;;;8.23;2.57;;;;;;;1.51;96.89;101720.25;5136916;27;20436;-35
2022/02/25 00:47:40;;;;;;;6.30;2.80;;;;;;;1.54;96.55;101718.16;5136468;27;20502;-35
2022/02/25 00:50:08;;;;;;;7.40;2.40;;;;;;;1.51;96.74;101701.59;5137474;27;20023;-35
2022/02/25 00:52:34;;;;;;;7.22;2.40;;;;;;;1.59;96.28;101723.03;5136891;27;20384;-35
2022/02/25 00:54:59;;;;;;;5.97;2.25;;;;;;;1.60;96.04;101724.69;5136737;27;20023;-35
2022/02/25 00:57:25;;;;;;;6.27;2.40;;;;;;;1.63;95.88;101726.25;5136605;27;20451;-35
2022/02/25 00:59:50;;;;;;;8.70;2.40;;;;;;;1.47;96.00;101694.94;5136863;27;20083;-35
2022/02/25 01:02:15;;;;;;;6.23;2.57;;;;;;;1.66;96.03;101726.78;5136600;27;20052;-35
2022/02/25 01:04:41;;;;;;;6.40;2.13;;;;;;;1.58;95.39;101715.19;5136524;27;20153;-35
2022/02/25 01:07:06;;;;;;;7.72;2.40;;;;;;;1.65;95.30;101727.75;5136416;27;20063;-35
2022/02/25 01:09:32;;;;;;;6.40;2.23;;;;;;;1.58;95.22;101716.03;5136665;27;20055;-35
2022/02/25 01:11:57;;;;;;;6.57;2.10;;;;;;;1.54;94.41;101711.97;5136615;27;20019;-35
2022/02/25 01:14:22;;;;;;;6.33;2.27;;;;;;;1.68;94.38;101735.44;5136820;27;20027;-35
2022/02/25 01:16:48;;;;;;;5.43;2.10;;;;;;;1.73;94.64;101735.84;5136226;27;20446;-35
2022/02/25 01:19:14;;;;;;;4.17;2.13;;;;;;;1.78;94.08;101736.22;5136258;27;20035;-35
2022/02/25 01:21:39;;;;;;;;;;;;;;;1.82;94.18;101735.94;5136511;27;20019;-35
2022/02/25 01:24:05;;;;;;;7.53;1.98;;;;;;;1.77;93.91;101734.56;5136206;27;19929;-35
2022/02/25 01:26:31;;;;;;;8.40;2.43;;;;;;;1.79;93.62;101731.72;5136634;27;20507;-35
2022/02/25 01:28:56;;;;;;;6.00;1.85;;;;;;;1.80;93.78;101726.22;5135715;27;20111;-35
2022/02/25 01:31:23;;;;;;;5.50;2.00;;;;;;;1.78;93.85;101725.56;5136124;27;20383;-35
2022/02/25 01:33:49;;;;;;;8.23;1.95;;;;;;;1.73;93.68;101705.66;5136443;27;20611;-35
2022/02/25 01:36:14;;;;;;;5.85;1.85;;;;;;;1.66;93.15;101702.78;5135922;27;20062;-35
2022/02/25 01:38:39;;;;;;;5.37;2.00;;;;;;;1.82;92.99;101719.94;5135916;27;20070;-35
2022/02/25 01:41:05;;;;;;;5.33;1.60;;;;;;;1.80;93.19;101720.06;5136096;27;20039;-35
2022/02/25 01:43:30;;;;;;;10.30;2.33;;;;;;;1.69;93.32;101705.13;5135747;27;20042;-35
2022/02/25 01:45:56;;;;;;;5.13;2.03;;;;;;;1.71;92.89;101705.84;5136303;27;20745;-35
2022/02/25 01:48:21;;;;;;;7.53;2.30;;;;;;;1.77;92.42;101715.06;5135700;27;20329;-35
2022/02/25 01:50:47;;;;;;;4.10;1.70;;;;;;;1.77;92.82;101718.56;5134582;27;20035;-35
2022/02/25 01:53:13;;;;;;;4.35;1.70;;;;;;;1.77;92.00;101723.88;5135506;27;20023;-35
2022/02/25 01:55:41;;;;;;;6.90;2.20;;;;;;;1.68;92.34;101706.13;5135789;27;20083;-35
2022/02/25 01:58:07;;;;;;;5.05;2.17;;;;;;;1.68;92.30;101710.63;5135073;27;20038;-35
2022/02/25 02:00:34;;;;;;;6.75;2.35;;;;;;;1.76;92.30;101726.72;5135979;27;20016;-35
2022/02/25 02:03:00;;;;;;;7.50;1.77;;;;;;;1.78;92.42;101727.38;5135263;27;20451;-35
2022/02/25 02:05:25;;;;;;;6.07;1.67;;;;;;;1.77;91.98;101728.38;5135458;27;20034;-35
2022/02/25 02:07:51;;;;;;;5.67;1.93;;;;;;;1.74;91.41;101718.84;5135748;27;20023;-35
2022/02/25 02:10:18;;;;;;;8.07;2.28;;;;;;;1.74;91.11;101726.00;5135885;27;20451;-35
2022/02/25 02:12:44;;;;;;;6.18;1.70;;;;;;;1.73;91.52;101722.50;5134751;27;20027;-35
2022/02/25 02:15:10;;;;;;;5.38;1.80;;;;;;;1.69;91.27;101712.28;5135947;27;20028;-35
2022/02/25 02:17:36;;;;;;;6.22;1.60;;;;;;;1.72;90.63;101726.16;5134676;27;20115;-35
2022/02/25 02:20:03;;;;;;;3.65;1.67;;;;;;;1.71;90.89;101723.66;5135823;27;20065;-35
2022/02/25 02:22:29;;;;;;;6.30;1.70;;;;;;;1.64;90.84;101710.06;5134525;27;20050;-35
2022/02/25 02:24:55;;;;;;;5.53;1.70;;;;;;;1.64;90.54;101706.56;5135471;27;20111;-35
2022/02/25 02:27:21;;;;;;;;;;;;;;;1.73;90.87;101722.50;5134945;27;20467;-35
2022/02/25 02:29:46;;;;;;;4.30;1.77;;;;;;;1.66;90.43;101721.44;5134779;27;20018;-35
2022/02/25 02:32:12;;;;;;;6.97;2.47;;;;;;;1.63;91.20;101723.56;5134697;27;20039;-35
2022/02/25 02:34:38;;;;;;;7.32;2.13;;;;;;;1.62;91.39;101730.72;5134891;27;20271;-35
2022/02/25 02:37:07;;;;;;;9.10;2.40;;;;;;;1.58;91.46;101723.19;5134437;27;20481;-35
2022/02/25 02:39:33;;;;;;;8.57;1.90;;;;;;;1.61;90.89;101725.53;5134821;27;20031;-35
2022/02/25 02:41:58;;;;;;;;;;;;;;;1.66;91.32;101729.44;5135633;27;20023;-35
2022/02/25 02:44:24;;;;;;;5.57;1.63;;;;;;;1.59;91.79;101722.19;5134990;27;19919;-35
2022/02/25 02:46:49;;;;;;;7.53;1.97;;;;;;;1.61;91.38;101744.19;5135189;27;20026;-35
2022/02/25 02:49:14;;;;;;;7.23;2.03;;;;;;;1.60;91.67;101724.69;5134405;27;20019;-35
2022/02/25 02:51:40;;;;;;;7.43;2.10;;;;;;;1.57;91.96;101727.69;5134518;27;20037;-35
2022/02/25 02:54:05;;;;;;;6.63;2.00;;;;;;;1.56;91.86;101725.97;5135266;27;20019;-35
2022/02/25 02:56:31;;;;;;;5.47;2.10;;;;;;;1.46;91.90;101714.53;5134749;27;20385;-35
2022/02/25 02:58:56;;;;;;;6.70;2.00;;;;;;;1.51;92.00;101731.78;5133334;27;20118;-35
2022/02/25 03:01:27;;;;;;;6.30;2.10;;;;;;;1.53;92.10;101732.47;5134274;27;20049;-35
2022/02/25 03:03:53;;;;;;;9.18;2.30;;;;;;;1.54;92.09;101722.63;5134838;27;20027;-35
2022/02/25 03:06:19;;;;;;;11.90;2.35;;;;;;;1.54;92.03;101725.31;5134589;27;20030;-35
2022/02/25 03:08:44;;;;;;;7.30;2.28;;;;;;;1.55;92.55;101724.31;5134181;27;20031;-35
2022/02/25 03:11:10;;;;;;;5.55;2.33;;;;;;;1.51;92.27;101721.13;5134288;27;20451;-35
2022/02/25 03:13:36;;;;;;;7.93;2.43;;;;;;;1.46;92.40;101717.22;5133973;28;20020;-35
2022/02/25 03:16:02;;;;;;;8.35;2.47;;;;;;;1.43;92.49;101706.88;5133942;28;20024;-35
2022/02/25 03:18:27;;;;;;;5.80;1.70;;;;;;;1.52;92.26;101713.97;5134387;28;20364;-35
2022/02/25 03:20:52;;;;;;;6.97;1.90;;;;;;;1.55;92.67;101724.31;5134224;28;20459;-35
2022/02/25 03:23:18;;;;;;;6.87;2.37;;;;;;;1.44;92.55;101695.22;5133835;27;20027;-35
2022/02/25 03:25:43;;;;;;;5.63;2.10;;;;;;;1.46;92.75;101707.38;5134205;28;20058;-35
2022/02/25 03:28:08;;;;;;;9.33;3.00;;;;;;;1.40;92.70;101700.00;5134103;28;20027;-35
2022/02/25 03:30:34;;;;;;;7.60;2.40;;;;;;;1.40;92.73;101709.81;5134475;28;20043;-35
2022/02/25 03:32:59;;;;;;;6.88;2.22;;;;;;;1.44;92.99;101724.53;5133950;28;20034;-35
2022/02/25 03:35:25;;;;;;;8.63;1.93;;;;;;;1.42;93.10;101715.84;5134616;28;20115;-35
2022/02/25 03:37:50;;;;;;;7.50;2.73;;;;;;;1.41;92.86;101717.66;5133597;28;20090;-35
2022/02/25 03:40:16;;;;;;;8.17;2.20;;;;;;;1.43;92.81;101725.53;5134471;28;20023;-35
2022/02/25 03:42:42;;;;;;;12.50;2.83;;;;;;;1.42;92.72;101727.34;5134433;28;20027;-35
2022/02/25 03:45:11;;;;;;;9.50;1.88;;;;;;;1.42;93.25;101737.19;5134373;28;20115;-35
2022/02/25 03:47:36;;;;;;;7.43;2.03;;;;;;;1.32;93.39;101715.06;5133480;28;20051;-35
2022/02/25 03:50:03;;;;;;;4.50;1.50;;;;;;;1.32;93.35;101712.38;5134403;28;20078;-35
2022/02/25 03:52:28;;;;;;;6.95;1.92;;;;;;;1.32;93.16;101723.03;5133494;28;20489;-35
2022/02/25 03:54:53;;;;;;;6.20;2.00;;;;;;;1.35;92.92;101722.75;5134272;28;20027;-35
2022/02/25 03:57:19;;;;;;;6.53;1.80;;;;;;;1.42;93.43;101730.03;5133555;28;20456;-35
2022/02/25 03:59:44;;;;;;;9.77;2.10;;;;;;;1.44;93.39;101744.03;5133519;28;20075;-35
2022/02/25 04:02:09;;;;;;;9.57;2.07;;;;;;;1.46;92.59;101735.88;5133770;28;20463;-35
2022/02/25 04:04:35;;;;;;;10.57;2.27;;;;;;;1.46;92.77;101741.19;5133781;28;20371;-35
2022/02/25 04:07:00;;;;;;;7.20;1.75;;;;;;;1.50;93.17;101731.91;5133720;28;20467;-35
2022/02/25 04:09:26;;;;;;;9.63;2.30;;;;;;;1.49;93.28;101722.25;5133407;28;20038;-35
2022/02/25 04:11:53;;;;;;;7.55;1.80;;;;;;;1.47;93.04;101718.91;5136688;27;20455;-35
2022/02/25 04:14:20;;;;;;;7.75;2.05;;;;;;;1.47;93.25;101732.25;5137963;27;20030;-35
2022/02/25 04:16:47;;;;;;;9.35;2.00;;;;;;;1.43;93.67;101726.38;5137334;27;20032;-35
2022/02/25 04:19:12;;;;;;;7.18;1.95;;;;;;;1.28;92.97;101691.38;5137690;27;20100;-35
2022/02/25 04:21:37;;;;;;;7.80;1.80;;;;;;;1.50;92.91;101726.59;5137072;27;20062;-35
2022/02/25 04:24:03;;;;;;;14.80;2.90;;;;;;;1.48;92.81;101723.25;5137583;27;20065;-35
2022/02/25 04:26:29;;;;;;;8.27;2.10;;;;;;;1.48;93.02;101715.25;5137223;27;20595;-35
2022/02/25 04:28:54;;;;;;;8.03;1.57;;;;;;;1.49;93.00;101724.91;5137194;27;20031;-35
2022/02/25 04:31:19;;;;;;;8.13;2.37;;;;;;;1.48;93.04;101718.75;5137852;27;20368;-35
2022/02/25 04:33:45;;;;;;;9.60;1.90;;;;;;;1.45;93.45;101724.38;5137101;27;20027;-35
2022/02/25 04:36:10;;;;;;;8.03;2.10;;;;;;;1.49;93.30;101722.25;5136731;27;20360;-35
2022/02/25 04:38:36;;;;;;;8.82;2.78;;;;;;;1.39;93.04;101708.16;5135755;27;20039;-35
2022/02/25 04:41:02;;;;;;;12.82;3.40;;;;;;;1.45;93.45;101723.53;5137341;27;20027;-35
2022/02/25 04:43:28;;;;;;;8.63;2.13;;;;;;;1.38;93.29;101707.31;5136628;27;20023;-35
2022/02/25 04:45:54;;;;;;;8.30;2.53;;;;;;;1.45;93.38;101736.88;5136611;27;20030;-35
2022/02/25 04:48:19;;;;;;;10.85;2.80;;;;;;;1.40;93.26;101712.50;5136798;27;20042;-35
2022/02/25 04:50:45;;;;;;;8.67;2.27;;;;;;;1.47;93.28;101733.06;5137110;27;20023;-35
2022/02/25 04:53:10;;;;;;;9.93;2.70;;;;;;;1.41;93.02;101722.16;5136669;27;20019;-35
2022/02/25 04:55:35;;;;;;;10.40;1.80;;;;;;;1.38;93.09;101722.47;5137234;27;20149;-35
2022/02/25 04:58:02;;;;;;;12.00;2.40;;;;;;;1.44;93.46;101733.38;5136900;27;20031;-35
2022/02/25 05:00:27;;;;;;;5.35;1.73;;;;;;;1.47;93.40;101750.91;5137356;27;20118;-35
2022/02/25 05:02:53;;;;;;;10.50;2.20;;;;;;;1.44;93.29;101751.19;5135136;27;20082;-35
2022/02/25 05:05:18;;;;;;;12.63;2.67;;;;;;;1.40;93.45;101739.13;5136718;27;20019;-35
2022/02/25 05:07:44;;;;;;;9.27;2.33;;;;;;;1.31;93.27;101727.53;5136432;27;20027;-35
2022/02/25 05:10:10;;;;;;;10.55;2.17;;;;;;;1.45;93.49;101750.19;5136700;27;20528;-35
2022/02/25 05:12:35;;;;;;;12.25;2.58;;;;;;;1.38;93.36;101747.28;5136045;27;20478;-35
2022/02/25 05:20:28;;;;;;;9.05;1.98;;;;;;;1.41;92.94;101733.66;5136459;27;20099;-35
2022/02/25 05:22:56;;;;;;;12.77;3.17;;;;;;;1.42;92.78;101729.19;5135368;27;20023;-35
2022/02/25 05:25:23;;;;;;;10.07;2.33;;;;;;;1.49;93.16;101740.91;5136351;27;20620;-35
2022/02/25 05:27:53;;;;;;;11.18;2.45;;;;;;;1.43;93.01;101734.34;5136059;27;20095;-35
2022/02/25 05:30:19;;;;;;;9.60;3.30;;;;;;;1.53;92.80;101736.97;5136338;27;20047;-35
2022/02/25 05:32:46;;;;;;;13.13;2.50;;;;;;;1.54;93.08;101730.63;5135816;27;20034;-35
2022/02/25 05:35:12;;;;;;;8.60;2.00;;;;;;;1.59;92.80;101744.34;5136487;27;20034;-35
2022/02/25 05:37:42;;;;;;;9.18;2.42;;;;;;;1.62;92.97;101738.72;5135749;27;20027;-35
2022/02/25 05:40:10;;;;;;;6.50;2.20;;;;;;;1.59;92.70;101733.69;5135266;27;20134;-35
2022/02/25 05:42:35;;;;;;;10.77;2.30;;;;;;;1.66;92.65;101737.44;5136099;27;20072;-35
2022/02/25 05:45:02;;;;;;;8.32;2.10;;;;;;;1.69;92.55;101745.13;5136243;27;20459;-35
2022/02/25 05:47:27;;;;;;;14.15;3.10;;;;;;;1.73;92.46;101746.50;5135319;27;20367;-35
2022/02/25 05:49:54;;;;;;;10.67;2.80;;;;;;;1.65;92.43;101729.56;5135594;27;20050;-35
2022/02/25 05:52:19;;;;;;;12.55;1.80;;;;;;;1.68;92.45;101729.28;5135550;27;20023;-35
2022/02/25 05:54:44;;;;;;;9.33;2.50;;;;;;;1.77;92.24;101739.88;5135886;27;20038;-35
2022/02/25 05:57:10;;;;;;;11.10;2.22;;;;;;;1.80;92.54;101747.56;5135173;27;20121;-35
2022/02/25 05:59:35;;;;;;;11.37;3.17;;;;;;;1.84;92.26;101747.28;5135750;27;20036;-35
2022/02/25 06:02:01;;;;;;;9.97;2.63;;;;;;;1.86;92.15;101747.97;5135106;27;20023;-35
2022/02/25 06:04:26;;;;;;;8.80;2.15;;;;;;;1.87;92.80;101762.97;5135629;27;20031;-35
2022/02/25 06:06:51;;;;;;;11.70;2.73;;;;;;;1.84;93.11;101766.78;5135405;27;20062;-35
2022/02/25 06:09:17;;;;;;;9.30;2.10;;;;;;;1.89;93.21;101763.66;5135545;27;20487;-35
2022/02/25 06:11:42;;;;;;;10.67;2.63;;;;;;;1.86;93.27;101753.31;5134983;27;20023;-35
2022/02/25 06:14:07;;;;;;;9.23;2.50;;;;;;;1.88;93.19;101753.97;5135212;27;20374;-35
2022/02/25 06:16:33;;;;;;;13.03;2.93;;;;;;;1.87;93.77;101765.66;5134827;27;20390;-35
2022/02/25 06:18:58;;;;;;;13.13;3.27;;;;;;;1.99;94.15;101780.44;5135711;27;20390;-35
2022/02/25 06:21:23;;;;;;;15.90;3.30;;;;;;;2.01;94.12;101786.47;5134718;27;20073;-35
2022/02/25 06:23:49;;;;;;;14.60;3.93;;;;;;;2.01;94.91;101789.13;5134826;27;20095;-35
2022/02/25 06:26:14;;;;;;;10.57;2.57;;;;;;;1.95;95.70;101779.03;5134911;27;20015;-35
2022/02/25 06:28:40;;;;;;;11.33;2.37;;;;;;;2.02;96.03;101793.47;5134936;27;20122;-35
2022/02/25 06:31:05;;;;;;;15.60;3.17;;;;;;;1.99;96.86;101802.59;5135013;27;20391;-35
2022/02/25 06:33:30;;;;;;;15.60;3.20;;;;;;;2.03;96.79;101808.47;5134232;27;20035;-35
2022/02/25 06:35:56;;;;;;;7.07;2.30;;;;;;;2.00;97.21;101803.44;5135187;27;20050;-35
2022/02/25 06:38:21;;;;;;;13.27;2.40;;;;;;;2.02;97.76;101809.47;5135165;27;20440;-35
2022/02/25 06:40:46;;;;;;;5.53;2.00;;;;;;;2.01;98.16;101816.66;5134864;27;20027;-35
2022/02/25 06:43:12;;;;;;;14.17;3.20;;;;;;;2.01;98.13;101821.16;5134438;27;20027;-35
2022/02/25 06:45:37;;;;;;;11.97;2.87;;;;;;;1.93;98.97;101807.72;5134275;27;20110;-35
2022/02/25 06:48:03;;;;;;;11.57;2.90;;;;;;;2.00;99.13;101814.97;5134389;27;20030;-35
2022/02/25 06:50:28;;;;;;;18.58;4.25;;;;;;;1.98;99.07;101810.75;5134883;27;20056;-35
2022/02/25 06:52:53;;;;;;;11.10;2.50;;;;;;;2.01;98.96;101816.66;5134160;27;20114;-35
2022/02/25 06:55:19;;;;;;;12.77;3.67;;;;;;;1.96;99.04;101820.75;5134565;27;20106;-35
2022/02/25 06:57:44;;;;;;;12.50;2.57;;;;;;;1.92;99.15;101814.03;5134217;27;20023;-35
2022/02/25 07:00:21;;;;;;;16.13;3.22;;;;;;;2.07;99.05;101828.53;5134648;27;20030;-35
2022/02/25 07:02:47;;;;;;;11.02;2.60;;;;;;;2.12;99.12;101826.25;5134446;27;20058;-35
2022/02/25 07:05:12;;;;;;;;;;;;;;;2.17;99.00;101837.31;5134892;27;20110;-35
2022/02/25 07:07:38;;;;;;;9.30;2.87;;;;;;;2.12;99.72;101823.59;5134580;27;20387;-35
2022/02/25 07:10:03;;;;;;;11.70;2.53;;;;;;;2.22;99.64;101840.38;5133872;27;20382;-35
2022/02/25 07:12:29;;;;;;;12.82;2.65;;;;;;;2.27;99.28;101838.06;5133731;28;20387;-35
2022/02/25 07:14:54;;;;;;;13.47;2.97;;;;;;;2.29;99.11;101846.78;5134578;28;20031;-35
2022/02/25 07:17:20;;;;;;;16.30;3.63;;;;;;;2.37;99.23;101840.66;5134042;28;20073;-35
2022/02/25 07:19:45;;;;;;;18.73;2.83;;;;;;;2.39;99.00;101835.16;5134184;28;20031;-35
2022/02/25 07:22:10;;;;;;;10.63;3.17;;;;;;;2.44;98.92;101844.41;5134110;28;20031;-35
2022/02/25 07:24:36;;;;;;;12.63;2.60;;;;;;;2.39;99.14;101828.03;5134491;28;20031;-35
2022/02/25 07:27:01;;;;;;;13.17;2.37;;;;;;;2.55;99.00;101859.38;5133865;28;20027;-35
2022/02/25 07:29:26;;;;;;;13.43;2.87;;;;;;;2.63;98.88;101847.91;5134860;28;20027;-35
2022/02/25 07:31:52;;;;;;;15.40;3.13;;;;;;;2.72;98.75;101847.81;5132870;28;20448;-35
2022/02/25 07:34:17;;;;;;;12.93;3.17;;;;;;;2.78;98.38;101862.38;5133827;28;20072;-35
2022/02/25 07:36:42;;;;;;;12.03;3.17;;;;;;;2.78;98.17;101863.22;5134372;28;20031;-35
2022/02/25 07:39:08;;;;;;;9.87;2.30;;;;;;;2.82;98.23;101874.44;5134941;28;20092;-35
2022/02/25 07:41:34;;;;;;;10.77;2.90;;;;;;;2.83;97.57;101866.28;5133662;28;20104;-35
2022/02/25 07:43:59;;;;;;;10.55;2.65;;;;;;;2.82;97.77;101867.25;5134346;28;20035;-35
2022/02/25 07:46:25;;;;;;;10.30;2.70;;;;;;;2.98;98.02;101887.09;5136532;27;20034;-35
2022/02/25 07:48:50;;;;;;;16.25;3.85;;;;;;;3.08;97.81;101885.16;5138750;27;20034;-35
2022/02/25 07:51:15;;;;;;;13.30;4.10;;;;;;;3.19;97.83;101884.06;5138523;27;20023;-35
2022/02/25 07:53:41;;;;;;;11.53;3.37;;;;;;;3.31;97.49;101901.50;5137595;27;20027;-35
2022/02/25 07:56:06;;;;;;;14.27;3.58;;;;;;;3.44;97.14;101898.41;5138322;27;20099;-35
2022/02/25 07:58:32;;;;;;;13.73;3.33;;;;;;;3.46;96.62;101901.75;5137561;27;20463;-35
2022/02/25 08:00:59;;;;;;;15.13;3.43;;;;;;;3.52;96.75;101904.66;5137508;27;20034;-35
2022/02/25 08:03:24;;;;;;;13.38;2.90;;;;;;;3.59;96.77;101915.53;5137597;27;20023;-35
2022/02/25 08:05:49;;;;;;;12.50;3.07;;;;;;;3.62;96.40;101917.91;5137608;27;20382;-35
2022/02/25 08:08:15;;;;;;;12.07;2.80;;;;;;;3.66;96.22;101926.44;5137954;27;20030;-35
2022/02/25 08:10:40;;;;;;;13.00;3.40;;;;;;;3.72;96.64;101932.00;5137897;27;20022;-35
2022/02/25 08:13:08;;;;;;;8.80;3.23;;;;;;;3.80;96.28;101931.19;5137225;27;20539;-35
2022/02/25 08:15:33;;;;;;;14.85;3.33;;;;;;;3.92;95.80;101934.44;5137419;27;20141;-35
2022/02/25 08:17:59;;;;;;;8.85;2.50;;;;;;;4.07;96.11;101943.53;5137078;27;20035;-35
2022/02/25 08:20:25;;;;;;;10.93;3.10;;;;;;;4.21;95.41;101948.25;5137313;27;20031;-35
2022/02/25 08:22:50;;;;;;;17.00;3.80;;;;;;;4.34;94.58;101947.78;5137268;27;20107;-35
2022/02/25 08:25:16;;;;;;;15.93;3.57;;;;;;;4.38;94.58;101949.97;5137287;27;20068;-35
2022/02/25 08:27:43;;;;;;;12.65;3.03;;;;;;;4.37;94.02;101947.47;5137208;27;20027;-35
2022/02/25 08:30:14;;;;;;;12.38;3.08;;;;;;;4.28;94.28;101927.84;5137015;27;20031;-35
2022/02/25 08:32:48;;;;;;;11.23;2.85;;;;;;;4.52;93.64;101963.75;5137550;27;20375;-35
2022/02/25 08:35:15;;;;;;;14.02;2.92;;;;;;;4.56;93.32;101946.34;5137363;27;20106;-35
2022/02/25 08:37:41;;;;;;;16.45;3.90;;;;;;;4.71;92.75;101966.13;5136923;27;20031;-35
2022/02/25 08:40:07;;;;;;;14.45;3.10;;;;;;;4.81;93.15;101976.69;5137576;27;20031;-35
2022/02/25 08:42:35;;;;;;;16.08;3.20;;;;;;;4.88;92.09;101978.56;5136841;27;20440;-35
2022/02/25 08:45:02;;;;;;;15.40;2.95;;;;;;;4.90;92.17;101981.06;5136813;27;20071;-35
2022/02/25 08:47:27;;;;;;;16.55;3.35;;;;;;;4.96;91.26;101984.91;5118463;27;20055;-35
2022/02/25 08:49:53;;;;;;;13.43;3.30;;;;;;;5.06;90.74;101985.59;5136526;27;20145;-35
2022/02/25 08:52:18;;;;;;;18.87;3.67;;;;;;;5.11;90.57;101989.44;5136343;27;20027;-35
2022/02/25 08:54:43;;;;;;;12.80;3.30;;;;;;;5.03;89.25;101983.25;5136379;27;20030;-35
2022/02/25 08:57:09;;;;;;;12.37;2.87;;;;;;;5.04;89.94;101995.66;5136566;27;20027;-35
2022/02/25 08:59:37;;;;;;;11.77;2.83;;;;;;;5.12;89.60;102009.06;5136728;27;20467;-35
2022/02/25 09:02:04;;;;;;;11.52;2.75;;;;;;;5.15;89.53;102019.44;5136180;27;20023;-35
2022/02/25 09:04:29;;;;;;;13.18;3.22;;;;;;;5.14;88.72;102012.41;5136743;27;20031;-35
2022/02/25 09:06:54;;;;;;;13.52;3.13;;;;;;;5.12;88.30;102019.78;5136304;27;20066;-35
2022/02/25 09:09:20;;;;;;;12.40;2.93;;;;;;;5.20;88.11;102024.31;5136366;27;20469;-35
2022/02/25 09:11:45;;;;;;;13.50;3.40;;;;;;;5.12;87.82;102020.63;5136307;27;20030;-44
2022/02/25 09:14:11;;;;;;;11.97;3.07;;;;;;;5.34;87.63;102029.84;5136881;27;20061;-36
2022/02/25 09:16:36;;;;;;;13.70;2.80;;;;;;;5.45;86.17;102017.09;5136559;27;20042;-35
2022/02/25 09:19:02;;;;;;;9.60;2.60;;;;;;;5.58;86.92;102018.28;5136923;27;20098;-35
2022/02/25 09:21:29;;;;;;;12.68;3.05;;;;;;;5.79;86.33;102035.69;5136008;27;20031;-35
2022/02/25 09:23:55;;;;;;;14.57;3.47;;;;;;;5.89;84.35;102034.47;5136555;27;20023;-35
2022/02/25 09:26:20;;;;;;;10.40;2.88;;;;;;;5.88;83.45;102007.81;5136831;27;20101;-35
2022/02/25 09:28:46;;;;;;;10.77;2.43;;;;;;;6.13;82.93;102016.66;5135918;27;20532;-35
2022/02/25 09:31:11;;;;;;;7.63;2.23;;;;;;;6.19;81.11;102027.53;5135956;27;20070;-35
2022/02/25 09:33:37;;;;;;;16.35;2.47;;;;;;;6.17;82.85;102026.91;5136300;27;20084;-35
2022/02/25 09:36:03;;;;;;;11.98;2.95;;;;;;;6.34;81.21;102041.09;5136458;27;20027;-35
2022/02/25 09:38:28;;;;;;;11.82;2.58;;;;;;;6.43;82.76;102045.41;5136341;27;20027;-35
2022/02/25 09:40:54;;;;;;;11.60;2.83;;;;;;;6.33;80.86;102050.16;5136057;27;20110;-35
2022/02/25 09:43:20;;;;;;;14.95;3.60;;;;;;;6.24;80.95;102061.94;5135411;27;20392;-35
2022/02/25 09:45:45;;;;;;;;;;;;;;;6.17;81.47;102066.34;5136016;27;20027;-35
2022/02/25 09:48:11;;;;;;;12.00;2.95;;;;;;;6.01;81.44;102066.41;5135723;27;20076;-36
2022/02/25 09:50:38;;;;;;;12.23;2.75;;;;;;;5.90;82.49;102064.84;5135682;27;20375;-36
2022/02/25 09:53:03;;;;;;;11.00;3.10;;;;;;;5.83;84.24;102072.75;5135386;27;20031;-35
2022/02/25 09:55:34;;;;;;;11.77;3.35;;;;;;;5.91;83.94;102093.41;5135579;27;20482;-35
2022/02/25 09:58:04;;;;;;;11.23;2.70;;;;;;;5.96;83.84;102082.19;5135510;27;20023;-35
2022/02/25 10:00:31;;;;;;;15.25;2.85;;;;;;;6.11;83.92;102089.38;5135518;27;20172;-35
2022/02/25 10:03:00;;;;;;;13.25;2.65;;;;;;;6.35;83.79;102093.84;5135796;27;20027;-35
2022/02/25 10:05:28;;;;;;;10.95;2.90;;;;;;;6.50;82.55;102101.19;5135421;27;20046;-35
2022/02/25 10:07:54;;;;;;;10.13;2.50;;;;;;;6.65;82.12;102107.50;5135409;27;20405;-35
2022/02/25 10:10:26;;;;;;;8.32;2.05;;;;;;;6.81;82.03;102107.41;5135134;27;20072;-35
2022/02/25 10:12:58;;;;;;;9.70;2.72;;;;;;;6.83;80.63;102116.16;5135297;27;20417;-35
2022/02/25 10:15:32;;;;;;;12.98;3.13;;;;;;;6.76;80.02;102104.41;5135968;27;20051;-35
2022/02/25 10:18:06;;;;;;;10.77;2.65;;;;;;;6.98;79.98;102118.94;5134660;27;20463;-35
2022/02/25 10:20:32;;;;;;;15.48;3.20;;;;;;;7.17;79.31;102121.19;5135559;27;20426;-35
2022/02/25 10:22:59;;;;;;;7.63;2.03;;;;;;;7.26;78.28;102119.28;5134846;27;20035;-35
2022/02/25 10:25:31;;;;;;;11.98;2.78;;;;;;;7.14;76.85;102113.47;5134849;27;20042;-35
2022/02/25 10:27:57;;;;;;;14.55;3.00;;;;;;;7.00;77.96;102119.59;5135053;27;20019;-35
2022/02/25 10:30:22;;;;;;;11.23;2.93;;;;;;;6.95;77.18;102122.81;5134793;27;20027;-35
2022/02/25 10:32:57;;;;;;;11.00;3.10;;;;;;;6.85;78.61;102135.63;5135443;27;20107;-35
2022/02/25 10:35:39;;;;;;;11.15;2.90;;;;;;;6.69;78.70;102143.78;5134308;27;20023;-35
2022/02/25 10:38:09;;;;;;;9.77;2.50;;;;;;;6.52;80.44;102145.66;5134912;27;20021;-35
2022/02/25 10:40:43;;;;;;;11.02;3.13;;;;;;;6.36;81.58;102146.56;5135572;27;20023;-35
2022/02/25 10:43:25;;;;;;;10.82;2.22;;;;;;;6.13;82.98;102140.22;5135184;27;20027;-35
2022/02/25 10:46:11;;;;;;;9.65;2.33;;;;;;;6.13;84.95;102150.97;5135257;27;20027;-35
2022/02/25 10:48:37;;;;;;;8.93;2.88;;;;;;;6.12;87.53;102147.44;5134653;27;20526;-35
2022/02/25 10:51:05;;;;;;;14.63;2.70;;;;;;;6.17;87.12;102163.03;5134554;27;20106;-36
2022/02/25 10:53:33;;;;;;;12.88;4.28;;;;;;;6.16;85.82;102172.94;5134439;27;20039;-36
2022/02/25 10:56:13;;;;;;;13.73;2.55;;;;;;;6.12;84.66;102174.28;5133981;27;20459;-35
2022/02/25 10:58:52;;;;;;;9.40;2.42;;;;;;;6.06;84.79;102172.28;5135122;27;20027;-36
2022/02/25 11:01:22;;;;;;;6.57;1.95;;;;;;;5.98;83.65;102174.13;5134687;27;20031;-35
2022/02/25 11:04:05;;;;;;;7.75;2.10;;;;;;;6.01;85.29;102184.56;5134109;27;20031;-35
2022/02/25 11:06:32;;;;;;;7.57;2.33;;;;;;;6.05;84.85;102194.78;5133117;27;20055;-35
2022/02/25 11:08:57;;;;;;;;;;;;;;;6.15;85.10;102202.66;5134745;27;20034;-35
2022/02/25 11:11:25;;;;;;;8.68;2.33;;;;;;;6.07;84.04;102190.06;5134944;27;19912;-35
2022/02/25 11:13:51;;;;;;;13.88;3.22;;;;;;;6.05;84.53;102192.09;5133995;28;20027;-36
2022/02/25 11:16:21;;;;;;;9.85;2.45;;;;;;;5.96;84.30;102201.16;5133995;28;20024;-36
2022/02/25 11:18:47;;;;;;;8.20;2.33;;;;;;;5.81;84.31;102206.31;5134280;28;20038;-36
2022/02/25 11:21:14;;;;;;;7.88;2.45;;;;;;;5.75;85.45;102206.97;5136791;27;20371;-36
2022/02/25 11:23:43;;;;;;;10.68;2.38;;;;;;;5.71;85.39;102202.09;5138303;27;20460;-35
2022/02/25 11:26:09;;;;;;;9.10;3.03;;;;;;;5.75;85.64;102203.44;5138709;27;20054;-35
2022/02/25 11:28:34;;;;;;;10.98;2.95;;;;;;;5.78;86.28;102206.66;5138102;27;20490;-35
2022/02/25 11:31:06;;;;;;;9.27;2.30;;;;;;;5.84;86.04;102189.88;5138526;27;20069;-36
2022/02/25 11:33:33;;;;;;;11.80;3.08;;;;;;;6.17;85.18;102206.03;5138429;27;20039;-36